sensor_id;sensor_type;location;lat;lon;timestamp;P1;durP1;ratioP1;P2;durP2;ratioP2
74593;SDS011;63097;51.872;4.460;2023-03-26T00:00:02;87.63;;;8.40;;
74593;SDS011;63097;51.872;4.460;2023-03-26T00:02:28;79.63;;;6.97;;
74593;SDS011;63097;51.872;4.460;2023-03-26T00:04:54;95.20;;;9.13;;
74593;SDS011;63097;51.872;4.460;2023-03-26T00:07:19;81.00;;;7.47;;
74593;SDS011;63097;51.872;4.460;2023-03-26T00:09:44;96.30;;;7.78;;
74593;SDS011;63097;51.872;4.460;2023-03-26T00:12:10;76.82;;;6.05;;
74593;SDS011;63097;51.872;4.460;2023-03-26T00:14:35;70.25;;;7.18;;
74593;SDS011;63097;51.872;4.460;2023-03-26T00:17:00;97.80;;;8.30;;
74593;SDS011;63097;51.872;4.460;2023-03-26T00:19:26;74.78;;;6.53;;
74593;SDS011;63097;51.872;4.460;2023-03-26T00:21:51;85.38;;;7.15;;
74593;SDS011;63097;51.872;4.460;2023-03-26T00:24:16;78.07;;;6.40;;
74593;SDS011;63097;51.872;4.460;2023-03-26T00:26:42;92.68;;;7.50;;
74593;SDS011;63097;51.872;4.460;2023-03-26T00:29:08;98.13;;;7.45;;
74593;SDS011;63097;51.872;4.460;2023-03-26T00:31:33;70.75;;;6.65;;
74593;SDS011;63097;51.872;4.460;2023-03-26T00:33:59;93.03;;;7.65;;
74593;SDS011;63097;51.872;4.460;2023-03-26T00:36:24;82.90;;;6.80;;
74593;SDS011;63097;51.872;4.460;2023-03-26T00:38:50;76.90;;;6.63;;
74593;SDS011;63097;51.872;4.460;2023-03-26T00:41:16;81.15;;;6.85;;
74593;SDS011;63097;51.872;4.460;2023-03-26T00:43:45;84.63;;;6.75;;
74593;SDS011;63097;51.872;4.460;2023-03-26T00:46:10;79.25;;;7.15;;
74593;SDS011;63097;51.872;4.460;2023-03-26T00:48:36;82.68;;;6.35;;
74593;SDS011;63097;51.872;4.460;2023-03-26T00:51:02;87.90;;;6.45;;
74593;SDS011;63097;51.872;4.460;2023-03-26T00:53:27;77.43;;;7.13;;
74593;SDS011;63097;51.872;4.460;2023-03-26T00:55:52;67.57;;;7.13;;
74593;SDS011;63097;51.872;4.460;2023-03-26T00:58:18;105.60;;;7.13;;
74593;SDS011;63097;51.872;4.460;2023-03-26T01:00:48;80.25;;;5.75;;
74593;SDS011;63097;51.872;4.460;2023-03-26T01:03:22;74.88;;;6.25;;
74593;SDS011;63097;51.872;4.460;2023-03-26T01:05:59;60.35;;;6.47;;
74593;SDS011;63097;51.872;4.460;2023-03-26T01:11:02;89.85;;;6.78;;
74593;SDS011;63097;51.872;4.460;2023-03-26T01:13:37;69.57;;;5.65;;
74593;SDS011;63097;51.872;4.460;2023-03-26T01:16:06;75.25;;;6.20;;
74593;SDS011;63097;51.872;4.460;2023-03-26T01:18:38;86.15;;;6.50;;
74593;SDS011;63097;51.872;4.460;2023-03-26T01:21:03;76.55;;;6.13;;
74593;SDS011;63097;51.872;4.460;2023-03-26T01:23:45;96.55;;;6.82;;
74593;SDS011;63097;51.872;4.460;2023-03-26T01:26:20;89.50;;;6.50;;
74593;SDS011;63097;51.872;4.460;2023-03-26T01:28:58;81.22;;;6.38;;
74593;SDS011;63097;51.872;4.460;2023-03-26T01:31:30;76.38;;;5.65;;
74593;SDS011;63097;51.872;4.460;2023-03-26T01:34:04;70.00;;;6.13;;
74593;SDS011;63097;51.872;4.460;2023-03-26T01:36:37;75.10;;;5.75;;
74593;SDS011;63097;51.872;4.460;2023-03-26T01:44:53;95.43;;;6.25;;
74593;SDS011;63097;51.872;4.460;2023-03-26T01:47:22;76.63;;;6.20;;
74593;SDS011;63097;51.872;4.460;2023-03-26T01:49:48;59.58;;;4.93;;
74593;SDS011;63097;51.872;4.460;2023-03-26T01:52:15;53.70;;;5.95;;
74593;SDS011;63097;51.872;4.460;2023-03-26T01:54:43;61.65;;;5.75;;
74593;SDS011;63097;51.872;4.460;2023-03-26T02:02:40;41.20;;;4.90;;
74593;SDS011;63097;51.872;4.460;2023-03-26T02:05:14;65.47;;;5.38;;
74593;SDS011;63097;51.872;4.460;2023-03-26T02:10:43;58.97;;;4.85;;
74593;SDS011;63097;51.872;4.460;2023-03-26T02:13:11;75.03;;;5.63;;
74593;SDS011;63097;51.872;4.460;2023-03-26T02:15:38;68.78;;;5.95;;
74593;SDS011;63097;51.872;4.460;2023-03-26T02:18:04;67.85;;;5.35;;
74593;SDS011;63097;51.872;4.460;2023-03-26T02:20:30;59.88;;;5.50;;
74593;SDS011;63097;51.872;4.460;2023-03-26T02:22:56;74.13;;;5.65;;
74593;SDS011;63097;51.872;4.460;2023-03-26T02:25:21;63.80;;;6.35;;
74593;SDS011;63097;51.872;4.460;2023-03-26T02:27:48;85.22;;;6.78;;
74593;SDS011;63097;51.872;4.460;2023-03-26T02:30:16;56.60;;;5.20;;
74593;SDS011;63097;51.872;4.460;2023-03-26T02:32:48;59.78;;;5.43;;
74593;SDS011;63097;51.872;4.460;2023-03-26T02:35:14;57.45;;;5.25;;
74593;SDS011;63097;51.872;4.460;2023-03-26T02:37:39;66.75;;;5.10;;
74593;SDS011;63097;51.872;4.460;2023-03-26T02:40:05;67.03;;;5.57;;
74593;SDS011;63097;51.872;4.460;2023-03-26T02:42:31;72.53;;;6.60;;
74593;SDS011;63097;51.872;4.460;2023-03-26T02:44:56;51.22;;;5.20;;
74593;SDS011;63097;51.872;4.460;2023-03-26T02:47:21;69.88;;;6.13;;
74593;SDS011;63097;51.872;4.460;2023-03-26T02:49:47;61.33;;;6.07;;
74593;SDS011;63097;51.872;4.460;2023-03-26T02:52:12;56.75;;;5.20;;
74593;SDS011;63097;51.872;4.460;2023-03-26T02:54:37;55.72;;;5.07;;
74593;SDS011;63097;51.872;4.460;2023-03-26T02:57:03;71.65;;;5.30;;
74593;SDS011;63097;51.872;4.460;2023-03-26T02:59:28;66.38;;;6.88;;
74593;SDS011;63097;51.872;4.460;2023-03-26T03:01:53;74.72;;;5.95;;
74593;SDS011;63097;51.872;4.460;2023-03-26T03:04:19;74.43;;;7.13;;
74593;SDS011;63097;51.872;4.460;2023-03-26T03:06:44;63.53;;;5.57;;
74593;SDS011;63097;51.872;4.460;2023-03-26T03:09:09;56.15;;;5.43;;
74593;SDS011;63097;51.872;4.460;2023-03-26T03:11:36;58.80;;;6.60;;
74593;SDS011;63097;51.872;4.460;2023-03-26T03:14:05;65.47;;;5.75;;
74593;SDS011;63097;51.872;4.460;2023-03-26T03:16:31;48.58;;;5.90;;
74593;SDS011;63097;51.872;4.460;2023-03-26T03:18:56;53.22;;;4.80;;
74593;SDS011;63097;51.872;4.460;2023-03-26T03:21:23;63.05;;;5.88;;
74593;SDS011;63097;51.872;4.460;2023-03-26T03:23:50;52.58;;;6.15;;
74593;SDS011;63097;51.872;4.460;2023-03-26T03:26:16;53.40;;;5.47;;
74593;SDS011;63097;51.872;4.460;2023-03-26T03:28:43;62.35;;;5.80;;
74593;SDS011;63097;51.872;4.460;2023-03-26T03:31:08;61.35;;;5.53;;
74593;SDS011;63097;51.872;4.460;2023-03-26T03:33:34;60.05;;;6.07;;
74593;SDS011;63097;51.872;4.460;2023-03-26T03:35:59;53.78;;;5.97;;
74593;SDS011;63097;51.872;4.460;2023-03-26T03:38:24;52.30;;;5.13;;
74593;SDS011;63097;51.872;4.460;2023-03-26T03:40:50;62.60;;;5.70;;
74593;SDS011;63097;51.872;4.460;2023-03-26T03:43:15;45.03;;;5.20;;
74593;SDS011;63097;51.872;4.460;2023-03-26T03:45:41;58.55;;;5.72;;
74593;SDS011;63097;51.872;4.460;2023-03-26T03:48:06;51.45;;;5.38;;
74593;SDS011;63097;51.872;4.460;2023-03-26T03:50:31;56.28;;;5.32;;
74593;SDS011;63097;51.872;4.460;2023-03-26T03:52:57;43.55;;;5.00;;
74593;SDS011;63097;51.872;4.460;2023-03-26T03:55:22;52.17;;;5.82;;
74593;SDS011;63097;51.872;4.460;2023-03-26T03:57:47;49.03;;;5.50;;
74593;SDS011;63097;51.872;4.460;2023-03-26T04:00:13;46.13;;;5.93;;
74593;SDS011;63097;51.872;4.460;2023-03-26T04:02:39;59.88;;;5.72;;
74593;SDS011;63097;51.872;4.460;2023-03-26T04:05:04;41.15;;;4.13;;
74593;SDS011;63097;51.872;4.460;2023-03-26T04:07:30;57.72;;;6.30;;
74593;SDS011;63097;51.872;4.460;2023-03-26T04:09:56;55.55;;;5.70;;
74593;SDS011;63097;51.872;4.460;2023-03-26T04:12:27;37.53;;;5.07;;
74593;SDS011;63097;51.872;4.460;2023-03-26T04:14:54;58.17;;;6.00;;
74593;SDS011;63097;51.872;4.460;2023-03-26T04:17:19;53.92;;;6.07;;
74593;SDS011;63097;51.872;4.460;2023-03-26T04:19:45;52.65;;;5.22;;
74593;SDS011;63097;51.872;4.460;2023-03-26T04:22:10;60.53;;;6.00;;
74593;SDS011;63097;51.872;4.460;2023-03-26T04:24:35;58.33;;;7.13;;
74593;SDS011;63097;51.872;4.460;2023-03-26T04:27:01;53.65;;;5.80;;
74593;SDS011;63097;51.872;4.460;2023-03-26T04:29:26;65.22;;;6.75;;
74593;SDS011;63097;51.872;4.460;2023-03-26T04:31:55;60.65;;;5.65;;
74593;SDS011;63097;51.872;4.460;2023-03-26T04:34:21;57.08;;;6.07;;
74593;SDS011;63097;51.872;4.460;2023-03-26T04:36:47;59.63;;;6.30;;
74593;SDS011;63097;51.872;4.460;2023-03-26T04:39:12;48.20;;;5.05;;
74593;SDS011;63097;51.872;4.460;2023-03-26T04:41:38;54.63;;;6.05;;
74593;SDS011;63097;51.872;4.460;2023-03-26T04:44:03;40.50;;;4.95;;
74593;SDS011;63097;51.872;4.460;2023-03-26T04:46:29;55.50;;;6.03;;
74593;SDS011;63097;51.872;4.460;2023-03-26T04:48:54;44.40;;;5.78;;
74593;SDS011;63097;51.872;4.460;2023-03-26T04:51:20;46.72;;;5.43;;
74593;SDS011;63097;51.872;4.460;2023-03-26T04:53:51;49.67;;;5.13;;
74593;SDS011;63097;51.872;4.460;2023-03-26T04:58:59;49.33;;;5.53;;
74593;SDS011;63097;51.872;4.460;2023-03-26T05:01:25;41.35;;;4.78;;
74593;SDS011;63097;51.872;4.460;2023-03-26T05:03:50;52.42;;;6.07;;
74593;SDS011;63097;51.872;4.460;2023-03-26T05:06:16;45.97;;;5.88;;
74593;SDS011;63097;51.872;4.460;2023-03-26T05:08:41;39.47;;;5.53;;
74593;SDS011;63097;51.872;4.460;2023-03-26T05:11:08;52.05;;;6.28;;
74593;SDS011;63097;51.872;4.460;2023-03-26T05:13:34;40.42;;;5.63;;
74593;SDS011;63097;51.872;4.460;2023-03-26T05:16:00;60.22;;;6.50;;
74593;SDS011;63097;51.872;4.460;2023-03-26T05:18:25;52.63;;;6.28;;
74593;SDS011;63097;51.872;4.460;2023-03-26T05:20:50;40.15;;;5.38;;
74593;SDS011;63097;51.872;4.460;2023-03-26T05:23:16;49.35;;;6.18;;
74593;SDS011;63097;51.872;4.460;2023-03-26T05:25:41;50.03;;;6.72;;
74593;SDS011;63097;51.872;4.460;2023-03-26T05:28:07;51.70;;;5.88;;
74593;SDS011;63097;51.872;4.460;2023-03-26T05:30:34;55.53;;;5.95;;
74593;SDS011;63097;51.872;4.460;2023-03-26T05:32:59;42.38;;;5.10;;
74593;SDS011;63097;51.872;4.460;2023-03-26T05:35:24;36.88;;;5.90;;
74593;SDS011;63097;51.872;4.460;2023-03-26T05:37:50;43.40;;;5.40;;
74593;SDS011;63097;51.872;4.460;2023-03-26T05:40:15;53.85;;;5.63;;
74593;SDS011;63097;51.872;4.460;2023-03-26T05:42:41;46.15;;;5.32;;
74593;SDS011;63097;51.872;4.460;2023-03-26T05:45:07;58.65;;;6.22;;
74593;SDS011;63097;51.872;4.460;2023-03-26T05:47:34;55.60;;;5.82;;
74593;SDS011;63097;51.872;4.460;2023-03-26T05:49:59;55.03;;;6.07;;
74593;SDS011;63097;51.872;4.460;2023-03-26T05:52:25;51.53;;;5.95;;
74593;SDS011;63097;51.872;4.460;2023-03-26T05:54:50;36.05;;;5.15;;
74593;SDS011;63097;51.872;4.460;2023-03-26T05:57:16;42.22;;;5.47;;
74593;SDS011;63097;51.872;4.460;2023-03-26T05:59:41;49.10;;;5.05;;
74593;SDS011;63097;51.872;4.460;2023-03-26T06:02:07;54.20;;;5.68;;
74593;SDS011;63097;51.872;4.460;2023-03-26T06:04:33;58.38;;;6.22;;
74593;SDS011;63097;51.872;4.460;2023-03-26T06:06:59;52.55;;;5.97;;
74593;SDS011;63097;51.872;4.460;2023-03-26T06:09:24;61.65;;;6.82;;
74593;SDS011;63097;51.872;4.460;2023-03-26T06:11:49;53.95;;;6.45;;
74593;SDS011;63097;51.872;4.460;2023-03-26T06:14:15;39.42;;;5.50;;
74593;SDS011;63097;51.872;4.460;2023-03-26T06:16:40;54.08;;;7.38;;
74593;SDS011;63097;51.872;4.460;2023-03-26T06:19:05;36.40;;;6.22;;
74593;SDS011;63097;51.872;4.460;2023-03-26T06:21:31;47.95;;;7.03;;
74593;SDS011;63097;51.872;4.460;2023-03-26T06:23:56;61.22;;;7.03;;
74593;SDS011;63097;51.872;4.460;2023-03-26T06:26:22;49.53;;;7.53;;
74593;SDS011;63097;51.872;4.460;2023-03-26T06:28:47;41.47;;;7.03;;
74593;SDS011;63097;51.872;4.460;2023-03-26T06:31:12;58.80;;;7.43;;
74593;SDS011;63097;51.872;4.460;2023-03-26T06:33:38;72.43;;;7.10;;
74593;SDS011;63097;51.872;4.460;2023-03-26T06:36:03;59.80;;;8.65;;
74593;SDS011;63097;51.872;4.460;2023-03-26T06:38:29;56.15;;;8.23;;
74593;SDS011;63097;51.872;4.460;2023-03-26T06:41:00;50.92;;;6.93;;
74593;SDS011;63097;51.872;4.460;2023-03-26T06:43:26;47.20;;;6.75;;
74593;SDS011;63097;51.872;4.460;2023-03-26T06:45:51;55.85;;;8.07;;
74593;SDS011;63097;51.872;4.460;2023-03-26T06:48:17;51.22;;;6.70;;
74593;SDS011;63097;51.872;4.460;2023-03-26T06:50:42;53.47;;;7.18;;
74593;SDS011;63097;51.872;4.460;2023-03-26T06:53:08;48.92;;;7.13;;
74593;SDS011;63097;51.872;4.460;2023-03-26T06:55:35;47.50;;;7.07;;
74593;SDS011;63097;51.872;4.460;2023-03-26T06:58:00;52.35;;;8.20;;
74593;SDS011;63097;51.872;4.460;2023-03-26T07:00:25;51.03;;;8.98;;
74593;SDS011;63097;51.872;4.460;2023-03-26T07:02:51;64.22;;;8.50;;
74593;SDS011;63097;51.872;4.460;2023-03-26T07:05:16;55.75;;;8.77;;
74593;SDS011;63097;51.872;4.460;2023-03-26T07:07:41;61.58;;;7.85;;
74593;SDS011;63097;51.872;4.460;2023-03-26T07:10:07;44.67;;;7.38;;
74593;SDS011;63097;51.872;4.460;2023-03-26T07:12:33;52.55;;;8.18;;
74593;SDS011;63097;51.872;4.460;2023-03-26T07:14:58;46.17;;;8.18;;
74593;SDS011;63097;51.872;4.460;2023-03-26T07:17:25;46.53;;;9.05;;
74593;SDS011;63097;51.872;4.460;2023-03-26T07:19:51;44.08;;;7.53;;
74593;SDS011;63097;51.872;4.460;2023-03-26T07:22:20;49.10;;;7.10;;
74593;SDS011;63097;51.872;4.460;2023-03-26T07:24:48;50.92;;;8.00;;
74593;SDS011;63097;51.872;4.460;2023-03-26T07:27:16;33.88;;;6.43;;
74593;SDS011;63097;51.872;4.460;2023-03-26T07:34:59;41.30;;;6.88;;
74593;SDS011;63097;51.872;4.460;2023-03-26T07:37:31;41.47;;;6.72;;
74593;SDS011;63097;51.872;4.460;2023-03-26T07:46:15;37.78;;;6.63;;
74593;SDS011;63097;51.872;4.460;2023-03-26T07:48:44;38.85;;;6.97;;
74593;SDS011;63097;51.872;4.460;2023-03-26T07:51:10;31.40;;;6.40;;
74593;SDS011;63097;51.872;4.460;2023-03-26T07:53:36;36.00;;;7.03;;
74593;SDS011;63097;51.872;4.460;2023-03-26T07:56:05;37.35;;;7.57;;
74593;SDS011;63097;51.872;4.460;2023-03-26T08:01:07;37.88;;;8.00;;
74593;SDS011;63097;51.872;4.460;2023-03-26T08:06:33;53.92;;;7.75;;
74593;SDS011;63097;51.872;4.460;2023-03-26T08:09:19;35.58;;;6.97;;
74593;SDS011;63097;51.872;4.460;2023-03-26T08:12:00;32.20;;;7.47;;
74593;SDS011;63097;51.872;4.460;2023-03-26T08:17:22;39.42;;;8.55;;
74593;SDS011;63097;51.872;4.460;2023-03-26T08:20:35;31.83;;;7.47;;
74593;SDS011;63097;51.872;4.460;2023-03-26T08:28:43;23.80;;;5.95;;
74593;SDS011;63097;51.872;4.460;2023-03-26T08:31:14;33.28;;;6.68;;
74593;SDS011;63097;51.872;4.460;2023-03-26T08:33:40;21.25;;;4.93;;
74593;SDS011;63097;51.872;4.460;2023-03-26T08:36:06;31.20;;;5.25;;
74593;SDS011;63097;51.872;4.460;2023-03-26T08:38:32;27.58;;;4.15;;
74593;SDS011;63097;51.872;4.460;2023-03-26T08:55:02;22.15;;;5.20;;
74593;SDS011;63097;51.872;4.460;2023-03-26T09:03:16;19.80;;;4.97;;
74593;SDS011;63097;51.872;4.460;2023-03-26T09:05:52;23.27;;;5.43;;
74593;SDS011;63097;51.872;4.460;2023-03-26T09:25:43;21.52;;;5.53;;
74593;SDS011;63097;51.872;4.460;2023-03-26T09:39:16;26.67;;;5.70;;
74593;SDS011;63097;51.872;4.460;2023-03-26T09:45:14;18.23;;;4.28;;
74593;SDS011;63097;51.872;4.460;2023-03-26T10:01:06;15.18;;;3.28;;
74593;SDS011;63097;51.872;4.460;2023-03-26T10:03:52;17.40;;;2.88;;
74593;SDS011;63097;51.872;4.460;2023-03-26T10:06:39;12.18;;;2.53;;
74593;SDS011;63097;51.872;4.460;2023-03-26T10:23:26;19.52;;;3.08;;
74593;SDS011;63097;51.872;4.460;2023-03-26T10:29:03;22.23;;;4.43;;
74593;SDS011;63097;51.872;4.460;2023-03-26T10:38:00;12.20;;;3.78;;
74593;SDS011;63097;51.872;4.460;2023-03-26T10:52:22;11.25;;;2.65;;
74593;SDS011;63097;51.872;4.460;2023-03-26T11:00:22;15.85;;;4.05;;
74593;SDS011;63097;51.872;4.460;2023-03-26T11:08:09;21.25;;;4.65;;
74593;SDS011;63097;51.872;4.460;2023-03-26T11:11:04;16.25;;;5.50;;
74593;SDS011;63097;51.872;4.460;2023-03-26T11:24:55;18.23;;;6.60;;
74593;SDS011;63097;51.872;4.460;2023-03-26T11:31:13;11.68;;;4.40;;
74593;SDS011;63097;51.872;4.460;2023-03-26T11:34:09;22.30;;;5.40;;
74593;SDS011;63097;51.872;4.460;2023-03-26T11:36:39;16.23;;;4.80;;
74593;SDS011;63097;51.872;4.460;2023-03-26T11:39:10;26.63;;;5.72;;
74593;SDS011;63097;51.872;4.460;2023-03-26T11:41:39;18.02;;;4.78;;
74593;SDS011;63097;51.872;4.460;2023-03-26T11:44:12;23.63;;;5.22;;
74593;SDS011;63097;51.872;4.460;2023-03-26T11:46:45;19.60;;;4.18;;
74593;SDS011;63097;51.872;4.460;2023-03-26T11:49:15;25.10;;;4.85;;
74593;SDS011;63097;51.872;4.460;2023-03-26T11:51:42;19.10;;;4.28;;
74593;SDS011;63097;51.872;4.460;2023-03-26T11:54:10;23.23;;;4.43;;
74593;SDS011;63097;51.872;4.460;2023-03-26T11:59:12;32.53;;;4.85;;
74593;SDS011;63097;51.872;4.460;2023-03-26T12:04:41;24.88;;;3.80;;
74593;SDS011;63097;51.872;4.460;2023-03-26T12:07:22;32.85;;;4.68;;
74593;SDS011;63097;51.872;4.460;2023-03-26T12:09:56;28.17;;;4.18;;
74593;SDS011;63097;51.872;4.460;2023-03-26T12:12:56;19.88;;;3.42;;
74593;SDS011;63097;51.872;4.460;2023-03-26T12:15:16;32.70;;;3.90;;
74593;SDS011;63097;51.872;4.460;2023-03-26T12:17:47;30.25;;;4.85;;
74593;SDS011;63097;51.872;4.460;2023-03-26T12:22:49;27.75;;;3.47;;
74593;SDS011;63097;51.872;4.460;2023-03-26T12:25:17;28.25;;;3.50;;
74593;SDS011;63097;51.872;4.460;2023-03-26T12:30:24;26.40;;;3.22;;
74593;SDS011;63097;51.872;4.460;2023-03-26T12:32:55;27.13;;;3.53;;
74593;SDS011;63097;51.872;4.460;2023-03-26T12:35:24;25.83;;;3.60;;
74593;SDS011;63097;51.872;4.460;2023-03-26T12:37:52;32.58;;;3.75;;
74593;SDS011;63097;51.872;4.460;2023-03-26T12:42:57;35.00;;;3.92;;
74593;SDS011;63097;51.872;4.460;2023-03-26T12:45:44;24.70;;;3.55;;
74593;SDS011;63097;51.872;4.460;2023-03-26T12:48:12;37.17;;;4.07;;
74593;SDS011;63097;51.872;4.460;2023-03-26T12:53:32;25.45;;;2.55;;
74593;SDS011;63097;51.872;4.460;2023-03-26T13:01:58;29.27;;;3.20;;
74593;SDS011;63097;51.872;4.460;2023-03-26T13:07:24;36.03;;;3.25;;
74593;SDS011;63097;51.872;4.460;2023-03-26T13:10:14;31.23;;;2.97;;
74593;SDS011;63097;51.872;4.460;2023-03-26T13:15:56;12.63;;;2.75;;
74593;SDS011;63097;51.872;4.460;2023-03-26T13:18:41;18.90;;;2.08;;
74593;SDS011;63097;51.872;4.460;2023-03-26T13:21:25;28.10;;;3.63;;
74593;SDS011;63097;51.872;4.460;2023-03-26T13:29:47;33.65;;;3.03;;
74593;SDS011;63097;51.872;4.460;2023-03-26T13:43:31;17.08;;;2.25;;
74593;SDS011;63097;51.872;4.460;2023-03-26T13:46:08;19.60;;;2.35;;
74593;SDS011;63097;51.872;4.460;2023-03-26T13:48:39;11.63;;;1.80;;
74593;SDS011;63097;51.872;4.460;2023-03-26T13:51:15;29.80;;;2.55;;
74593;SDS011;63097;51.872;4.460;2023-03-26T13:53:58;22.23;;;2.35;;
74593;SDS011;63097;51.872;4.460;2023-03-26T13:56:25;15.15;;;1.50;;
74593;SDS011;63097;51.872;4.460;2023-03-26T14:02:08;16.45;;;2.22;;
74593;SDS011;63097;51.872;4.460;2023-03-26T14:07:24;18.83;;;3.13;;
74593;SDS011;63097;51.872;4.460;2023-03-26T14:10:12;24.27;;;2.45;;
74593;SDS011;63097;51.872;4.460;2023-03-26T14:15:13;16.63;;;2.13;;
74593;SDS011;63097;51.872;4.460;2023-03-26T14:18:04;19.05;;;2.30;;
74593;SDS011;63097;51.872;4.460;2023-03-26T14:31:20;13.15;;;1.80;;
74593;SDS011;63097;51.872;4.460;2023-03-26T14:39:28;20.83;;;2.25;;
74593;SDS011;63097;51.872;4.460;2023-03-26T14:41:55;20.38;;;2.45;;
74593;SDS011;63097;51.872;4.460;2023-03-26T14:47:22;14.02;;;2.45;;
74593;SDS011;63097;51.872;4.460;2023-03-26T14:58:21;12.88;;;1.45;;
74593;SDS011;63097;51.872;4.460;2023-03-26T15:01:12;16.15;;;1.23;;
74593;SDS011;63097;51.872;4.460;2023-03-26T15:43:28;23.92;;;2.45;;
74593;SDS011;63097;51.872;4.460;2023-03-26T15:46:49;17.50;;;2.00;;
74593;SDS011;63097;51.872;4.460;2023-03-26T15:49:40;12.52;;;1.55;;
74593;SDS011;63097;51.872;4.460;2023-03-26T15:55:54;16.92;;;2.25;;
74593;SDS011;63097;51.872;4.460;2023-03-26T15:57:57;10.98;;;1.75;;
74593;SDS011;63097;51.872;4.460;2023-03-26T16:01:07;21.00;;;2.33;;
74593;SDS011;63097;51.872;4.460;2023-03-26T16:06:50;11.98;;;1.52;;
74593;SDS011;63097;51.872;4.460;2023-03-26T16:09:49;12.10;;;1.80;;
74593;SDS011;63097;51.872;4.460;2023-03-26T16:12:30;25.55;;;2.13;;
74593;SDS011;63097;51.872;4.460;2023-03-26T16:20:44;15.75;;;1.80;;
74593;SDS011;63097;51.872;4.460;2023-03-26T16:23:33;20.05;;;2.97;;
74593;SDS011;63097;51.872;4.460;2023-03-26T16:33:44;9.80;;;1.20;;
74593;SDS011;63097;51.872;4.460;2023-03-26T16:36:41;16.42;;;2.53;;
74593;SDS011;63097;51.872;4.460;2023-03-26T16:44:23;14.25;;;2.15;;
74593;SDS011;63097;51.872;4.460;2023-03-26T16:50:17;9.57;;;1.48;;
74593;SDS011;63097;51.872;4.460;2023-03-26T16:56:02;9.82;;;1.13;;
74593;SDS011;63097;51.872;4.460;2023-03-26T16:58:41;7.95;;;1.13;;
74593;SDS011;63097;51.872;4.460;2023-03-26T17:01:21;8.75;;;1.08;;
74593;SDS011;63097;51.872;4.460;2023-03-26T17:03:59;5.78;;;1.23;;
74593;SDS011;63097;51.872;4.460;2023-03-26T17:09:16;15.70;;;1.50;;
74593;SDS011;63097;51.872;4.460;2023-03-26T17:15:16;12.15;;;1.55;;
74593;SDS011;63097;51.872;4.460;2023-03-26T17:23:16;14.02;;;1.77;;
74593;SDS011;63097;51.872;4.460;2023-03-26T17:25:58;12.63;;;1.13;;
74593;SDS011;63097;51.872;4.460;2023-03-26T17:31:18;5.03;;;1.02;;
74593;SDS011;63097;51.872;4.460;2023-03-26T17:37:01;7.07;;;1.10;;
74593;SDS011;63097;51.872;4.460;2023-03-26T17:42:26;30.00;;;2.30;;
74593;SDS011;63097;51.872;4.460;2023-03-26T17:44:56;10.90;;;1.55;;
74593;SDS011;63097;51.872;4.460;2023-03-26T17:47:34;9.05;;;1.42;;
74593;SDS011;63097;51.872;4.460;2023-03-26T17:52:57;13.30;;;1.10;;
74593;SDS011;63097;51.872;4.460;2023-03-26T17:55:37;9.43;;;1.65;;
74593;SDS011;63097;51.872;4.460;2023-03-26T17:58:05;5.75;;;1.77;;
74593;SDS011;63097;51.872;4.460;2023-03-26T18:00:54;9.55;;;0.80;;
74593;SDS011;63097;51.872;4.460;2023-03-26T18:03:33;18.75;;;1.75;;
74593;SDS011;63097;51.872;4.460;2023-03-26T18:06:05;12.07;;;2.40;;
74593;SDS011;63097;51.872;4.460;2023-03-26T18:16:59;18.20;;;1.90;;
74593;SDS011;63097;51.872;4.460;2023-03-26T18:19:26;11.25;;;1.38;;
74593;SDS011;63097;51.872;4.460;2023-03-26T18:21:52;9.30;;;1.45;;
74593;SDS011;63097;51.872;4.460;2023-03-26T18:24:24;12.20;;;1.50;;
74593;SDS011;63097;51.872;4.460;2023-03-26T18:29:27;10.95;;;1.35;;
74593;SDS011;63097;51.872;4.460;2023-03-26T18:34:21;10.10;;;2.15;;
74593;SDS011;63097;51.872;4.460;2023-03-26T18:36:58;22.77;;;2.50;;
74593;SDS011;63097;51.872;4.460;2023-03-26T18:40:07;12.52;;;1.50;;
74593;SDS011;63097;51.872;4.460;2023-03-26T18:42:44;13.75;;;1.70;;
74593;SDS011;63097;51.872;4.460;2023-03-26T18:48:15;15.68;;;1.60;;
74593;SDS011;63097;51.872;4.460;2023-03-26T18:50:42;16.20;;;1.77;;
74593;SDS011;63097;51.872;4.460;2023-03-26T18:53:13;17.27;;;1.90;;
74593;SDS011;63097;51.872;4.460;2023-03-26T18:55:44;26.60;;;2.30;;
74593;SDS011;63097;51.872;4.460;2023-03-26T19:00:58;13.52;;;1.30;;
74593;SDS011;63097;51.872;4.460;2023-03-26T19:03:26;20.48;;;1.48;;
74593;SDS011;63097;51.872;4.460;2023-03-26T19:05:54;14.35;;;1.00;;
74593;SDS011;63097;51.872;4.460;2023-03-26T19:08:21;9.40;;;1.65;;
74593;SDS011;63097;51.872;4.460;2023-03-26T19:10:49;15.32;;;1.27;;
74593;SDS011;63097;51.872;4.460;2023-03-26T19:13:15;12.15;;;1.48;;
74593;SDS011;63097;51.872;4.460;2023-03-26T19:15:43;16.08;;;1.40;;
74593;SDS011;63097;51.872;4.460;2023-03-26T19:18:12;16.30;;;2.67;;
74593;SDS011;63097;51.872;4.460;2023-03-26T19:20:49;14.50;;;1.95;;
74593;SDS011;63097;51.872;4.460;2023-03-26T19:23:18;11.30;;;1.92;;
74593;SDS011;63097;51.872;4.460;2023-03-26T19:25:50;18.27;;;1.45;;
74593;SDS011;63097;51.872;4.460;2023-03-26T19:28:22;20.00;;;1.65;;
74593;SDS011;63097;51.872;4.460;2023-03-26T19:30:53;13.40;;;1.42;;
74593;SDS011;63097;51.872;4.460;2023-03-26T19:33:20;8.55;;;1.38;;
74593;SDS011;63097;51.872;4.460;2023-03-26T19:35:58;24.75;;;2.85;;
74593;SDS011;63097;51.872;4.460;2023-03-26T19:38:28;17.98;;;2.00;;
74593;SDS011;63097;51.872;4.460;2023-03-26T19:41:02;8.73;;;0.82;;
74593;SDS011;63097;51.872;4.460;2023-03-26T19:43:28;14.77;;;1.30;;
74593;SDS011;63097;51.872;4.460;2023-03-26T19:45:53;7.82;;;1.13;;
74593;SDS011;63097;51.872;4.460;2023-03-26T19:48:23;16.05;;;1.58;;
74593;SDS011;63097;51.872;4.460;2023-03-26T19:50:59;15.40;;;1.40;;
74593;SDS011;63097;51.872;4.460;2023-03-26T19:53:33;15.23;;;1.50;;
74593;SDS011;63097;51.872;4.460;2023-03-26T19:56:10;12.75;;;1.65;;
74593;SDS011;63097;51.872;4.460;2023-03-26T19:58:38;12.25;;;1.00;;
74593;SDS011;63097;51.872;4.460;2023-03-26T20:01:04;17.08;;;2.05;;
74593;SDS011;63097;51.872;4.460;2023-03-26T20:03:39;20.00;;;1.50;;
74593;SDS011;63097;51.872;4.460;2023-03-26T20:06:09;13.73;;;1.27;;
74593;SDS011;63097;51.872;4.460;2023-03-26T20:08:36;20.08;;;1.70;;
74593;SDS011;63097;51.872;4.460;2023-03-26T20:11:01;15.95;;;1.60;;
74593;SDS011;63097;51.872;4.460;2023-03-26T20:13:26;24.92;;;1.98;;
74593;SDS011;63097;51.872;4.460;2023-03-26T20:15:53;6.47;;;1.10;;
74593;SDS011;63097;51.872;4.460;2023-03-26T20:18:33;12.35;;;1.30;;
74593;SDS011;63097;51.872;4.460;2023-03-26T20:20:58;4.70;;;0.90;;
74593;SDS011;63097;51.872;4.460;2023-03-26T20:23:24;18.27;;;1.90;;
74593;SDS011;63097;51.872;4.460;2023-03-26T20:25:50;8.30;;;1.08;;
74593;SDS011;63097;51.872;4.460;2023-03-26T20:28:16;10.90;;;1.33;;
74593;SDS011;63097;51.872;4.460;2023-03-26T20:30:42;8.13;;;1.25;;
74593;SDS011;63097;51.872;4.460;2023-03-26T20:33:12;13.50;;;1.50;;
74593;SDS011;63097;51.872;4.460;2023-03-26T20:35:46;12.27;;;1.42;;
74593;SDS011;63097;51.872;4.460;2023-03-26T20:38:11;20.40;;;1.58;;
74593;SDS011;63097;51.872;4.460;2023-03-26T20:40:37;10.13;;;1.30;;
74593;SDS011;63097;51.872;4.460;2023-03-26T20:43:04;10.38;;;1.35;;
74593;SDS011;63097;51.872;4.460;2023-03-26T20:45:33;13.73;;;1.23;;
74593;SDS011;63097;51.872;4.460;2023-03-26T20:47:58;19.60;;;1.52;;
74593;SDS011;63097;51.872;4.460;2023-03-26T20:50:24;9.50;;;1.00;;
74593;SDS011;63097;51.872;4.460;2023-03-26T20:52:49;23.35;;;1.50;;
74593;SDS011;63097;51.872;4.460;2023-03-26T20:55:15;18.70;;;2.00;;
74593;SDS011;63097;51.872;4.460;2023-03-26T20:57:42;12.77;;;1.70;;